Aérodrome :
LOGIN :

S'inscrire | Disclaimer

   EN    FR    IT 

 










Légende :    VFR   VFR Marginal   IFR   IFR Intensif   IFR Très Intensif
Visi : 
Plafond : 
>= 8 km
>= 3000ft
5 à 8 km
1000 à 3000 ft
1500m à 5 km
500 à 1000 ft
800 à 1500m
200 à 500 ft
< 800m
< 200 ft
Symboles :   Orages  Brouillard  Fortes neiges  Fortes précipitations  Vent > 20 kt
SIGMETs :   Divers  Orages  Givrage  Turbulence  Onde Orograph.  Cendres Volcan.







- Altitude de l'aérodrome : 3368 ft


LSGC - Les Eplatures

DERNIER METAR :
  • 162320Z AUTO 00000KT 7000 OVC043 15/15 Q1024

METARs EXPIRÉS :
  • 162250Z AUTO 00000KT 4000 BR FEW030 15/15 Q1024
  • 162220Z AUTO VRB01KT 6000 FEW040 16/16 Q1024
  • 162150Z AUTO VRB01KT 9999 -RA FEW022 SCT045 BKN050 16/16 Q1024
  • 162120Z AUTO 00000KT 9999 BKN004 BKN023 BKN090 //////TCU 16/16 Q1024
  • 162050Z AUTO 32001KT 9999 VCTS FEW022 OVC070 BKN090 SCT///CB 16/16 Q1024

TAF TAF LSGC
Valide du 16 à 15h jusqu'au 17 à 00h UTC


161425Z 1615/1624 VRB03KT 9999 SCT040 SCT055TCU BKN150
BECMG 1617/1619 CAVOK
Pas de NOTAMs connus pour ce terrain.



MET'MAP, la Météo Aéronautique d'un coup d'oeil ! - Copyright ORBIFLY Décembre 2007 - Disclaimer

ORBIFLY MET'MAP TEAM :

Programmation & Développement : Alexandra Zaïnal
Conception & Développement : Baudouin d'Aumeries
Co-Programmation & Développement : Marc-Olivier Méhu
Soutien technique & logistique : Manuel Goepfert

Contact : metmap@orbifly.com




SOURCES & CREDITS :

   NOAA